Time;durP1;ratioP1;P1;durP2;ratioP2;P2;SDS_P1;SDS_P2;PMS_P1;PMS_P2;Temp;Humidity;BMP_temperature;BMP_pressure;BME280_temperature;BME280_humidity;BME280_pressure;Samples;Min_cycle;Max_cycle;Signal;HPM_P1;HPM_P2
2023/02/24 00:02:18;;;;;;;;;57.75;47.75;;;;;;;;5024570;28;11581;-82
2023/02/24 00:04:50;;;;;;;;;51.50;42.00;;;;;;;;5029761;28;11606;-82
2023/02/24 00:07:19;;;;;;;;;55.75;42.25;;;;;;;;5012338;28;11521;-81
2023/02/24 00:09:47;;;;;;;;;52.00;43.25;;;;;;;;5034352;28;11542;-83
2023/02/24 00:12:16;;;;;;;;;58.75;48.25;;;;;;;;5011923;28;11612;-81
2023/02/24 00:14:46;;;;;;;;;48.50;40.50;;;;;;;;5031871;28;11602;-81
2023/02/24 00:17:16;;;;;;;;;54.00;41.25;;;;;;;;5031100;28;11577;-80
2023/02/24 00:19:45;;;;;;;;;53.75;43.25;;;;;;;;4990264;28;12391;-81
2023/02/24 00:22:12;;;;;;;;;57.50;44.50;;;;;;;;5031000;28;11524;-81
2023/02/24 00:24:40;;;;;;;;;49.25;42.00;;;;;;;;4993965;28;11596;-81
2023/02/24 00:27:10;;;;;;;;;49.75;41.25;;;;;;;;5031826;28;11629;-81
2023/02/24 00:29:38;;;;;;;;;57.50;45.25;;;;;;;;5008842;28;11529;-81
2023/02/24 00:32:11;;;;;;;;;61.50;43.00;;;;;;;;5032186;28;11663;-81
2023/02/24 00:34:40;;;;;;;;;56.75;45.00;;;;;;;;5027936;28;11598;-81
2023/02/24 00:37:07;;;;;;;;;56.00;45.50;;;;;;;;5014306;28;11590;-81
2023/02/24 00:39:35;;;;;;;;;45.75;36.50;;;;;;;;5004401;28;11523;-80
2023/02/24 00:42:05;;;;;;;;;52.00;42.00;;;;;;;;5031199;28;11501;-81
2023/02/24 00:44:33;;;;;;;;;49.25;41.25;;;;;;;;5030729;28;11476;-80
2023/02/24 00:47:02;;;;;;;;;48.25;38.25;;;;;;;;5033593;28;11529;-81
2023/02/24 00:49:30;;;;;;;;;51.00;39.75;;;;;;;;5010104;28;11551;-81
2023/02/24 00:52:03;;;;;;;;;42.25;37.00;;;;;;;;5026879;28;11585;-81
2023/02/24 00:54:31;;;;;;;;;45.00;38.25;;;;;;;;5007139;28;11676;-80
2023/02/24 00:56:59;;;;;;;;;44.00;35.00;;;;;;;;5026589;28;11639;-80
2023/02/24 00:59:29;;;;;;;;;43.00;38.50;;;;;;;;5026176;28;11537;-81
2023/02/24 01:01:57;;;;;;;;;51.00;41.75;;;;;;;;5026689;28;11626;-80
2023/02/24 01:04:24;;;;;;;;;45.50;39.50;;;;;;;;5008412;28;11579;-81
2023/02/24 01:06:58;;;;;;;;;40.00;33.50;;;;;;;;4996281;28;11576;-81
2023/02/24 01:09:29;;;;;;;;;57.25;45.50;;;;;;;;5027893;28;11564;-85
2023/02/24 01:14:43;;;;;;;;;50.75;38.50;;;;;;;;5008696;28;11656;-81
2023/02/24 01:17:10;;;;;;;;;51.50;40.50;;;;;;;;5009047;28;11594;-82
2023/02/24 01:19:38;;;;;;;;;55.25;41.50;;;;;;;;5008657;28;11525;-81
2023/02/24 01:22:08;;;;;;;;;46.00;34.50;;;;;;;;5023076;28;11606;-81
2023/02/24 01:24:39;;;;;;;;;52.50;40.75;;;;;;;;5025770;28;11557;-81
2023/02/24 01:27:08;;;;;;;;;48.75;39.25;;;;;;;;5025975;28;11691;-81
2023/02/24 01:29:38;;;;;;;;;55.50;45.25;;;;;;;;5023285;28;11557;-81
2023/02/24 01:32:05;;;;;;;;;50.00;42.25;;;;;;;;5022821;28;11575;-81
2023/02/24 01:34:33;;;;;;;;;47.75;38.25;;;;;;;;5007940;28;11579;-81
2023/02/24 01:37:01;;;;;;;;;53.75;43.50;;;;;;;;5013851;28;12529;-81
2023/02/24 01:39:29;;;;;;;;;57.75;43.25;;;;;;;;5006361;28;11577;-81
2023/02/24 01:42:00;;;;;;;;;51.25;41.75;;;;;;;;5009618;28;11575;-81
2023/02/24 01:45:11;;;;;;;;;51.25;40.25;;;;;;;;5005699;28;11558;-81
2023/02/24 01:47:38;;;;;;;;;65.75;49.50;;;;;;;;5006635;28;11855;-81
2023/02/24 01:50:08;;;;;;;;;59.75;48.25;;;;;;;;5023553;28;12451;-80
2023/02/24 01:52:37;;;;;;;;;60.75;48.50;;;;;;;;5026245;28;12425;-81
2023/02/24 01:55:12;;;;;;;;;49.50;41.75;;;;;;;;5012753;28;11554;-81
2023/02/24 01:57:42;;;;;;;;;56.00;45.50;;;;;;;;5020969;28;11539;-81
2023/02/24 02:00:30;;;;;;;;;54.50;45.25;;;;;;;;5024674;28;11812;-80
2023/02/24 02:03:02;;;;;;;;;54.50;42.50;;;;;;;;5012483;28;11540;-81
2023/02/24 02:05:30;;;;;;;;;51.50;43.75;;;;;;;;5028157;28;12388;-81
2023/02/24 02:07:58;;;;;;;;;42.50;35.25;;;;;;;;5001373;28;11558;-81
2023/02/24 02:10:27;;;;;;;;;50.50;41.75;;;;;;;;5028263;28;11553;-81
2023/02/24 02:12:57;;;;;;;;;54.75;45.00;;;;;;;;4992664;28;12450;-82
2023/02/24 02:15:24;;;;;;;;;52.00;43.00;;;;;;;;4989435;28;11564;-81
2023/02/24 02:17:56;;;;;;;;;52.25;41.00;;;;;;;;5026903;28;11575;-83
2023/02/24 02:20:57;;;;;;;;;43.50;37.75;;;;;;;;5024769;28;12356;-80
2023/02/24 02:23:47;;;;;;;;;42.75;37.00;;;;;;;;4969674;28;11621;-80
2023/02/24 02:26:40;;;;;;;;;50.50;41.00;;;;;;;;5000620;28;11691;-80
2023/02/24 02:29:47;;;;;;;;;43.00;36.25;;;;;;;;5022122;28;11545;-81
2023/02/24 02:32:50;;;;;;;;;49.75;40.75;;;;;;;;5027974;28;11585;-81
2023/02/24 02:35:22;;;;;;;;;58.75;46.00;;;;;;;;4998636;28;11630;-82
2023/02/24 02:37:55;;;;;;;;;61.75;51.25;;;;;;;;5006669;28;11646;-81
2023/02/24 02:40:28;;;;;;;;;71.00;58.00;;;;;;;;5028295;28;11727;-80
2023/02/24 02:43:01;;;;;;;;;64.75;51.25;;;;;;;;5008752;28;11572;-81
2023/02/24 02:45:33;;;;;;;;;61.50;48.75;;;;;;;;5024733;28;11556;-80
2023/02/24 02:48:05;;;;;;;;;66.25;48.75;;;;;;;;5029110;28;11604;-79
2023/02/24 02:50:37;;;;;;;;;58.25;46.50;;;;;;;;5027905;28;11679;-81
2023/02/24 02:53:08;;;;;;;;;62.25;50.75;;;;;;;;5021169;28;11583;-80
2023/02/24 02:55:40;;;;;;;;;50.50;43.25;;;;;;;;5024752;28;12319;-81
2023/02/24 02:58:13;;;;;;;;;48.75;41.00;;;;;;;;5020346;28;11627;-81
2023/02/24 03:00:48;;;;;;;;;48.75;41.00;;;;;;;;5007288;28;11662;-80
2023/02/24 03:03:17;;;;;;;;;51.75;41.25;;;;;;;;5035382;28;11646;-81
2023/02/24 03:05:49;;;;;;;;;52.50;44.00;;;;;;;;5012509;28;11558;-81
2023/02/24 03:08:20;;;;;;;;;55.75;44.75;;;;;;;;5009800;28;12372;-81
2023/02/24 03:10:50;;;;;;;;;47.00;41.00;;;;;;;;5024280;28;11566;-81
2023/02/24 03:13:21;;;;;;;;;50.75;42.00;;;;;;;;5006157;28;11562;-81
2023/02/24 03:15:50;;;;;;;;;51.00;41.00;;;;;;;;5006815;28;11647;-81
2023/02/24 03:18:27;;;;;;;;;56.75;44.75;;;;;;;;5003738;28;11578;-81
2023/02/24 03:21:05;;;;;;;;;46.00;38.25;;;;;;;;5013794;28;12489;-81
2023/02/24 03:23:35;;;;;;;;;55.50;41.50;;;;;;;;4991339;28;11584;-80
2023/02/24 03:26:15;;;;;;;;;65.00;51.00;;;;;;;;5024580;28;11576;-80
2023/02/24 03:28:48;;;;;;;;;65.00;50.50;;;;;;;;5027361;28;12374;-81
2023/02/24 03:31:21;;;;;;;;;58.75;47.50;;;;;;;;5029302;28;11588;-81
2023/02/24 03:33:55;;;;;;;;;47.75;37.00;;;;;;;;5010918;28;11566;-81
2023/02/24 03:36:25;;;;;;;;;59.25;48.00;;;;;;;;5006405;28;11530;-81
2023/02/24 03:38:52;;;;;;;;;47.75;39.75;;;;;;;;5010970;28;11584;-81
2023/02/24 03:41:20;;;;;;;;;54.75;46.25;;;;;;;;5009057;28;11550;-81
2023/02/24 03:43:48;;;;;;;;;52.00;41.50;;;;;;;;5023179;28;11604;-81
2023/02/24 03:46:16;;;;;;;;;59.75;49.25;;;;;;;;5026417;28;11575;-81
2023/02/24 03:48:50;;;;;;;;;61.00;48.00;;;;;;;;5027753;28;11570;-82
2023/02/24 03:51:20;;;;;;;;;54.50;42.75;;;;;;;;5024422;28;11549;-81
2023/02/24 03:53:58;;;;;;;;;66.25;50.50;;;;;;;;5025837;28;11675;-81
2023/02/24 03:56:30;;;;;;;;;56.75;46.50;;;;;;;;5029755;28;11578;-81
2023/02/24 03:59:11;;;;;;;;;54.25;45.25;;;;;;;;5010616;28;11550;-81
2023/02/24 04:01:46;;;;;;;;;60.75;43.25;;;;;;;;5026340;28;11710;-81
2023/02/24 04:04:19;;;;;;;;;52.00;42.75;;;;;;;;5009496;28;11710;-82
2023/02/24 04:06:50;;;;;;;;;54.25;44.50;;;;;;;;5027721;28;11560;-81
2023/02/24 04:09:26;;;;;;;;;59.75;49.25;;;;;;;;5026286;28;11541;-82
2023/02/24 04:11:58;;;;;;;;;59.00;46.50;;;;;;;;5008805;28;11694;-81
2023/02/24 04:14:30;;;;;;;;;61.50;49.75;;;;;;;;4992164;28;11622;-81
2023/02/24 04:17:01;;;;;;;;;41.25;36.25;;;;;;;;5005761;28;11604;-80
2023/02/24 04:19:32;;;;;;;;;51.25;42.75;;;;;;;;5026148;28;11624;-82
2023/02/24 04:22:00;;;;;;;;;56.75;47.00;;;;;;;;5027036;28;11602;-81
2023/02/24 04:24:31;;;;;;;;;55.00;45.75;;;;;;;;5030744;28;11569;-81
2023/02/24 04:27:00;;;;;;;;;58.50;45.00;;;;;;;;5029920;28;11549;-80
2023/02/24 04:29:34;;;;;;;;;58.00;47.00;;;;;;;;5016146;28;11662;-81
2023/02/24 04:32:04;;;;;;;;;60.00;45.75;;;;;;;;5012269;28;11553;-80
2023/02/24 04:34:32;;;;;;;;;55.00;45.00;;;;;;;;5011092;28;11568;-81
2023/02/24 04:37:01;;;;;;;;;55.75;44.50;;;;;;;;5026357;28;11572;-81
2023/02/24 04:39:32;;;;;;;;;54.75;45.50;;;;;;;;5027108;28;11692;-81
2023/02/24 04:42:01;;;;;;;;;65.00;48.00;;;;;;;;5004128;28;11574;-81
2023/02/24 04:44:28;;;;;;;;;61.75;47.25;;;;;;;;5007269;28;11566;-81
2023/02/24 04:46:57;;;;;;;;;62.25;51.00;;;;;;;;5022625;28;11583;-81
2023/02/24 04:49:24;;;;;;;;;60.75;48.00;;;;;;;;5023891;28;11554;-85
2023/02/24 04:51:52;;;;;;;;;55.50;46.25;;;;;;;;5021977;28;11552;-80
2023/02/24 04:54:23;;;;;;;;;52.75;42.75;;;;;;;;5029489;28;11631;-81
2023/02/24 04:56:52;;;;;;;;;45.75;40.75;;;;;;;;4986723;28;12072;-81
2023/02/24 04:59:20;;;;;;;;;58.00;47.50;;;;;;;;5027160;28;11517;-81
2023/02/24 05:01:50;;;;;;;;;57.25;45.50;;;;;;;;5016393;28;12473;-80
2023/02/24 05:04:18;;;;;;;;;55.75;44.25;;;;;;;;4999729;28;11595;-81
2023/02/24 05:06:46;;;;;;;;;55.50;46.00;;;;;;;;4981466;28;11651;-81
2023/02/24 05:09:16;;;;;;;;;51.00;38.50;;;;;;;;4996776;28;11679;-80
2023/02/24 05:11:45;;;;;;;;;55.50;45.75;;;;;;;;5000530;28;11624;-81
2023/02/24 05:14:15;;;;;;;;;54.75;43.00;;;;;;;;4998130;28;11597;-81
2023/02/24 05:16:43;;;;;;;;;53.50;41.75;;;;;;;;5000927;28;11697;-82
2023/02/24 05:21:52;;;;;;;;;59.75;46.00;;;;;;;;4953044;28;11617;-81
2023/02/24 05:24:19;;;;;;;;;59.25;45.25;;;;;;;;5000647;28;12492;-82
2023/02/24 05:26:46;;;;;;;;;55.00;43.25;;;;;;;;5001073;28;11655;-81
2023/02/24 05:29:15;;;;;;;;;59.25;46.00;;;;;;;;4981090;28;11661;-80
2023/02/24 05:31:44;;;;;;;;;55.75;45.00;;;;;;;;4984845;28;11664;-81
2023/02/24 05:34:15;;;;;;;;;46.25;38.25;;;;;;;;4998304;28;11660;-81
2023/02/24 05:36:44;;;;;;;;;56.00;45.00;;;;;;;;4971554;28;11650;-81
2023/02/24 05:39:17;;;;;;;;;59.25;46.25;;;;;;;;5000309;28;11639;-81
2023/02/24 05:41:47;;;;;;;;;54.75;45.00;;;;;;;;4998343;28;11806;-82
2023/02/24 05:44:21;;;;;;;;;61.00;48.50;;;;;;;;4994969;28;11652;-81
2023/02/24 05:46:49;;;;;;;;;63.50;49.00;;;;;;;;4983215;28;11673;-81
2023/02/24 05:49:22;;;;;;;;;62.25;49.25;;;;;;;;5000531;28;11622;-81
2023/02/24 05:51:54;;;;;;;;;54.00;43.50;;;;;;;;4999460;28;11646;-81
2023/02/24 05:54:24;;;;;;;;;60.50;45.75;;;;;;;;4980129;28;12026;-81
2023/02/24 05:56:52;;;;;;;;;58.00;43.00;;;;;;;;4968312;28;11684;-82
2023/02/24 05:59:21;;;;;;;;;49.25;43.50;;;;;;;;4998180;28;11619;-81
2023/02/24 06:01:51;;;;;;;;;65.00;49.75;;;;;;;;5001374;28;11643;-80
2023/02/24 06:04:38;;;;;;;;;57.75;42.75;;;;;;;;5019303;28;11592;-81
2023/02/24 06:07:06;;;;;;;;;58.25;48.25;;;;;;;;5018540;28;11641;-81
2023/02/24 06:09:38;;;;;;;;;53.75;43.75;;;;;;;;5003673;28;12408;-81
2023/02/24 06:12:07;;;;;;;;;56.00;45.75;;;;;;;;5013951;28;11531;-81
2023/02/24 06:14:36;;;;;;;;;56.25;44.75;;;;;;;;5017413;28;11635;-81
2023/02/24 06:17:04;;;;;;;;;47.50;38.75;;;;;;;;5005443;28;11756;-81
2023/02/24 06:19:32;;;;;;;;;55.25;42.50;;;;;;;;5019955;28;11591;-80
2023/02/24 06:22:02;;;;;;;;;51.75;43.50;;;;;;;;5018723;28;12475;-81
2023/02/24 06:24:31;;;;;;;;;47.00;41.75;;;;;;;;5019399;28;11650;-80
2023/02/24 06:27:01;;;;;;;;;48.50;42.00;;;;;;;;5016409;28;11609;-81
2023/02/24 06:29:30;;;;;;;;;51.50;41.50;;;;;;;;5016230;28;11638;-81
2023/02/24 06:31:59;;;;;;;;;48.75;40.00;;;;;;;;5015538;28;11568;-80
2023/02/24 06:34:26;;;;;;;;;38.25;35.75;;;;;;;;5020228;28;11632;-81
2023/02/24 06:36:57;;;;;;;;;48.25;38.00;;;;;;;;5004088;28;11630;-81
2023/02/24 06:39:24;;;;;;;;;37.00;32.25;;;;;;;;5022512;28;11700;-81
2023/02/24 06:41:52;;;;;;;;;39.00;35.25;;;;;;;;5021000;28;11606;-81
2023/02/24 06:44:20;;;;;;;;;39.50;37.00;;;;;;;;5024670;28;11621;-81
2023/02/24 06:46:47;;;;;;;;;45.00;38.00;;;;;;;;5021433;28;11720;-79
2023/02/24 06:49:16;;;;;;;;;45.50;38.00;;;;;;;;5004953;28;11634;-80
2023/02/24 06:51:44;;;;;;;;;39.75;35.00;;;;;;;;5022143;28;12329;-81
2023/02/24 06:54:11;;;;;;;;;60.25;49.00;;;;;;;;4994796;28;11630;-80
2023/02/24 06:56:40;;;;;;;;;59.75;46.50;;;;;;;;5020906;28;11564;-80
2023/02/24 06:59:11;;;;;;;;;44.50;36.00;;;;;;;;5015835;28;11631;-81
2023/02/24 07:01:44;;;;;;;;;39.50;32.00;;;;;;;;5020239;28;11619;-81
2023/02/24 07:04:19;;;;;;;;;38.00;32.50;;;;;;;;5020897;28;11717;-81
2023/02/24 07:06:51;;;;;;;;;37.75;34.00;;;;;;;;5022292;28;11830;-81
2023/02/24 07:09:20;;;;;;;;;32.50;24.25;;;;;;;;5017993;28;11714;-81
2023/02/24 07:11:51;;;;;;;;;20.00;15.25;;;;;;;;5018168;28;12428;-81
2023/02/24 07:14:19;;;;;;;;;36.75;35.00;;;;;;;;5020178;28;11535;-80
2023/02/24 07:16:52;;;;;;;;;25.25;25.25;;;;;;;;5006131;28;11637;-81
2023/02/24 07:19:21;;;;;;;;;27.50;22.00;;;;;;;;5014217;28;11678;-82
2023/02/24 07:21:51;;;;;;;;;16.75;16.75;;;;;;;;5021957;28;11544;-81
2023/02/24 07:24:29;;;;;;;;;24.25;22.75;;;;;;;;5023977;28;11526;-79
2023/02/24 07:26:59;;;;;;;;;24.50;22.50;;;;;;;;5019434;28;12991;-81
2023/02/24 07:29:27;;;;;;;;;23.00;23.00;;;;;;;;5018642;28;12471;-81
2023/02/24 07:31:55;;;;;;;;;18.75;18.25;;;;;;;;5002735;28;11588;-80
2023/02/24 07:34:23;;;;;;;;;19.00;14.25;;;;;;;;5021748;28;11737;-80
2023/02/24 07:36:54;;;;;;;;;15.25;15.25;;;;;;;;5003492;28;11596;-81
2023/02/24 07:39:23;;;;;;;;;18.75;15.50;;;;;;;;5020347;28;11520;-81
2023/02/24 07:41:52;;;;;;;;;22.25;18.25;;;;;;;;5019441;28;11539;-81
2023/02/24 07:44:20;;;;;;;;;18.50;16.00;;;;;;;;5021174;28;12392;-81
2023/02/24 07:46:48;;;;;;;;;15.50;13.75;;;;;;;;5020011;28;11541;-81
2023/02/24 07:49:19;;;;;;;;;16.25;13.00;;;;;;;;5018891;28;11610;-81
2023/02/24 07:51:51;;;;;;;;;19.25;15.00;;;;;;;;5021030;28;11558;-80
2023/02/24 07:54:22;;;;;;;;;25.75;20.50;;;;;;;;5019817;28;11534;-81
2023/02/24 07:56:57;;;;;;;;;12.25;12.25;;;;;;;;5020472;28;12436;-81
2023/02/24 07:59:26;;;;;;;;;22.75;17.00;;;;;;;;5026816;28;11607;-80
2023/02/24 08:01:54;;;;;;;;;20.00;17.25;;;;;;;;5022140;28;11616;-80
2023/02/24 08:04:24;;;;;;;;;13.75;13.75;;;;;;;;5018470;28;11525;-81
2023/02/24 08:06:55;;;;;;;;;19.75;15.00;;;;;;;;5037342;28;11530;-80
2023/02/24 08:12:16;;;;;;;;;11.75;9.75;;;;;;;;5019609;28;12084;-81
2023/02/24 08:14:49;;;;;;;;;21.25;20.00;;;;;;;;5028811;28;11499;-80
2023/02/24 08:17:18;;;;;;;;;14.75;13.00;;;;;;;;5013267;28;11675;-80
2023/02/24 08:19:48;;;;;;;;;16.00;14.75;;;;;;;;5029965;28;11444;-80
2023/02/24 08:22:24;;;;;;;;;15.25;13.00;;;;;;;;5034009;28;11517;-80
2023/02/24 08:24:59;;;;;;;;;16.50;15.00;;;;;;;;5028842;28;11576;-81
2023/02/24 08:27:29;;;;;;;;;12.50;12.50;;;;;;;;5027482;28;12344;-80
2023/02/24 08:29:58;;;;;;;;;17.00;13.25;;;;;;;;5025247;28;11557;-81
2023/02/24 08:32:32;;;;;;;;;12.50;12.50;;;;;;;;5012293;28;11522;-81
2023/02/24 08:35:01;;;;;;;;;16.75;16.75;;;;;;;;5029920;28;11622;-80
2023/02/24 08:37:38;;;;;;;;;14.25;13.50;;;;;;;;5027003;28;11480;-80
2023/02/24 08:40:36;;;;;;;;;13.25;13.25;;;;;;;;5031032;28;11447;-80
2023/02/24 08:42:58;;;;;;;;;15.50;14.25;;;;;;;;5008657;28;11526;-83
2023/02/24 08:45:27;;;;;;;;;14.25;13.25;;;;;;;;5017462;28;11640;-80
2023/02/24 08:47:59;;;;;;;;;19.00;15.00;;;;;;;;5027621;28;11486;-80
2023/02/24 08:50:32;;;;;;;;;13.50;11.75;;;;;;;;5021628;28;11566;-85
2023/02/24 08:53:01;;;;;;;;;13.25;13.25;;;;;;;;5028401;28;11462;-81
2023/02/24 08:55:31;;;;;;;;;14.00;12.00;;;;;;;;5014213;28;11615;-80
2023/02/24 08:58:01;;;;;;;;;14.50;11.00;;;;;;;;5010030;28;11901;-81
2023/02/24 09:00:47;;;;;;;;;13.75;9.75;;;;;;;;4988549;28;11473;-80
2023/02/24 09:03:26;;;;;;;;;18.25;15.25;;;;;;;;5017439;28;12345;-81
2023/02/24 09:06:00;;;;;;;;;17.50;12.00;;;;;;;;5005839;28;11597;-80
2023/02/24 09:08:31;;;;;;;;;17.50;13.25;;;;;;;;5016814;28;11656;-80
2023/02/24 09:11:06;;;;;;;;;11.25;11.25;;;;;;;;5027561;28;11489;-81
2023/02/24 09:13:34;;;;;;;;;13.75;11.00;;;;;;;;5022379;28;11458;-76
2023/02/24 09:16:02;;;;;;;;;12.25;12.25;;;;;;;;5001132;28;12264;-79
2023/02/24 09:18:37;;;;;;;;;9.25;8.25;;;;;;;;5015948;28;11647;-78
2023/02/24 09:23:54;;;;;;;;;8.25;6.50;;;;;;;;5000241;28;11539;-77
2023/02/24 09:26:23;;;;;;;;;15.25;11.00;;;;;;;;5018728;28;11590;-76
2023/02/24 09:28:55;;;;;;;;;8.50;8.25;;;;;;;;5018230;28;11443;-77
2023/02/24 09:31:39;;;;;;;;;10.25;9.50;;;;;;;;4998553;28;11440;-76
2023/02/24 09:34:09;;;;;;;;;9.75;8.25;;;;;;;;5017720;28;11536;-76
2023/02/24 09:36:43;;;;;;;;;10.50;8.00;;;;;;;;5017196;28;11466;-74
2023/02/24 09:39:13;;;;;;;;;6.50;6.50;;;;;;;;5019126;28;11507;-75
2023/02/24 09:42:27;;;;;;;;;9.00;7.75;;;;;;;;5015927;28;11417;-75
2023/02/24 09:44:54;;;;;;;;;12.50;8.75;;;;;;;;5017827;28;11426;-76
2023/02/24 09:47:38;;;;;;;;;8.00;8.00;;;;;;;;4998867;28;11476;-76
2023/02/24 09:50:14;;;;;;;;;3.75;2.25;;;;;;;;5015973;28;11516;-75
2023/02/24 09:52:41;;;;;;;;;14.00;8.00;;;;;;;;5016259;28;11449;-76
2023/02/24 09:55:24;;;;;;;;;11.00;9.75;;;;;;;;5017258;28;11614;-76
2023/02/24 10:00:54;;;;;;;;;3.00;3.00;;;;;;;;5017705;28;11136;-76
2023/02/24 10:03:40;;;;;;;;;10.00;7.50;;;;;;;;5003005;28;10771;-76
2023/02/24 10:06:15;;;;;;;;;9.00;6.00;;;;;;;;4998129;28;10905;-76
2023/02/24 10:08:49;;;;;;;;;4.75;4.75;;;;;;;;4992798;28;11052;-76
2023/02/24 10:11:31;;;;;;;;;9.00;5.00;;;;;;;;4990162;28;10801;-76
2023/02/24 10:14:04;;;;;;;;;5.50;5.50;;;;;;;;4989802;28;11644;-76
2023/02/24 10:16:40;;;;;;;;;7.25;4.50;;;;;;;;5000345;28;10787;-75
2023/02/24 10:19:15;;;;;;;;;4.25;4.25;;;;;;;;5000737;28;10768;-75
2023/02/24 10:21:48;;;;;;;;;12.00;10.25;;;;;;;;5005835;28;10559;-76
2023/02/24 10:24:21;;;;;;;;;7.50;7.50;;;;;;;;5005575;28;11963;-75
2023/02/24 10:26:53;;;;;;;;;5.00;5.00;;;;;;;;4998715;28;10702;-76
2023/02/24 10:29:31;;;;;;;;;15.25;11.00;;;;;;;;4989871;28;10307;-75
2023/02/24 10:32:15;;;;;;;;;4.75;3.00;;;;;;;;4990554;28;10645;-76
2023/02/24 10:34:46;;;;;;;;;7.75;4.50;;;;;;;;4999702;28;10173;-76
2023/02/24 10:37:18;;;;;;;;;4.00;4.00;;;;;;;;4999755;28;10127;-76
2023/02/24 10:39:48;;;;;;;;;3.00;3.00;;;;;;;;4997535;28;10127;-76
2023/02/24 10:42:24;;;;;;;;;3.00;3.00;;;;;;;;4986711;28;9890;-76
2023/02/24 10:45:10;;;;;;;;;4.25;4.25;;;;;;;;5000948;28;9946;-76
2023/02/24 10:47:43;;;;;;;;;3.50;3.50;;;;;;;;4974585;28;9922;-76
2023/02/24 10:50:22;;;;;;;;;10.75;5.25;;;;;;;;4998224;28;9677;-75
2023/02/24 10:53:09;;;;;;;;;4.00;3.00;;;;;;;;5001386;28;10028;-75
2023/02/24 10:55:53;;;;;;;;;3.00;3.00;;;;;;;;4989135;28;9623;-75
2023/02/24 10:58:36;;;;;;;;;5.00;2.00;;;;;;;;4988443;28;9654;-74
2023/02/24 11:01:12;;;;;;;;;2.00;2.00;;;;;;;;5001126;28;9628;-76
2023/02/24 11:03:46;;;;;;;;;4.67;4.00;;;;;;;;4985877;28;9591;-75
2023/02/24 11:06:41;;;;;;;;;4.33;2.00;;;;;;;;4989515;28;9322;-75
2023/02/24 11:09:30;;;;;;;;;2.67;2.67;;;;;;;;4999880;28;9438;-75
2023/02/24 11:17:45;;;;;;;;;4.33;4.33;;;;;;;;5001851;28;9168;-75
2023/02/24 11:20:22;;;;;;;;;3.00;3.00;;;;;;;;5000110;28;9390;-76
2023/02/24 11:22:54;;;;;;;;;4.67;4.67;;;;;;;;4999787;28;9296;-74
2023/02/24 11:25:24;;;;;;;;;5.00;3.67;;;;;;;;5000387;28;9390;-75
2023/02/24 11:27:54;;;;;;;;;4.33;4.33;;;;;;;;5001069;28;9169;-76
2023/02/24 11:30:26;;;;;;;;;10.33;6.00;;;;;;;;5000387;28;9117;-73
2023/02/24 11:33:11;;;;;;;;;3.00;3.00;;;;;;;;5001200;28;8995;-74
2023/02/24 11:35:44;;;;;;;;;6.00;4.00;;;;;;;;4997371;28;8983;-73
2023/02/24 11:38:26;;;;;;;;;4.00;3.25;;;;;;;;5000795;28;8981;-75
2023/02/24 11:41:12;;;;;;;;;7.75;3.00;;;;;;;;5008053;28;8883;-75
2023/02/24 11:43:43;;;;;;;;;7.00;4.50;;;;;;;;5005938;28;8889;-75
2023/02/24 11:46:14;;;;;;;;;11.75;7.00;;;;;;;;5002324;28;8883;-76
2023/02/24 11:48:46;;;;;;;;;6.67;6.00;;;;;;;;5002438;28;8878;-80
2023/02/24 11:51:18;;;;;;;;;3.00;3.00;;;;;;;;5001584;28;8947;-80
2023/02/24 11:53:49;;;;;;;;;3.67;3.00;;;;;;;;4986721;28;8965;-82
2023/02/24 11:56:21;;;;;;;;;6.00;5.00;;;;;;;;5003729;28;9565;-82
2023/02/24 11:58:54;;;;;;;;;5.67;5.67;;;;;;;;4999674;28;9107;-82
2023/02/24 12:01:28;;;;;;;;;12.00;8.67;;;;;;;;5002290;28;9205;-81
2023/02/24 12:04:06;;;;;;;;;7.00;6.00;;;;;;;;5004567;28;10006;-81
2023/02/24 12:06:42;;;;;;;;;12.67;7.00;;;;;;;;5022072;28;9095;-82
2023/02/24 12:09:15;;;;;;;;;6.00;6.00;;;;;;;;5005698;28;9090;-83
2023/02/24 12:11:51;;;;;;;;;7.67;7.00;;;;;;;;5010340;28;8997;-81
2023/02/24 12:14:33;;;;;;;;;7.33;7.33;;;;;;;;5003672;28;9119;-82
2023/02/24 12:17:06;;;;;;;;;5.33;5.33;;;;;;;;5021286;28;9129;-74
2023/02/24 12:19:41;;;;;;;;;6.67;6.67;;;;;;;;5020576;28;9031;-75
2023/02/24 12:22:13;;;;;;;;;8.00;8.00;;;;;;;;5017494;28;9406;-75
2023/02/24 12:24:46;;;;;;;;;10.25;6.50;;;;;;;;5017180;28;10217;-75
2023/02/24 12:27:18;;;;;;;;;11.75;11.75;;;;;;;;5000856;28;9446;-76
2023/02/24 12:29:53;;;;;;;;;13.75;12.25;;;;;;;;5018668;28;10350;-76
2023/02/24 12:32:29;;;;;;;;;10.00;10.00;;;;;;;;5018229;28;9557;-76
2023/02/24 12:35:09;;;;;;;;;10.00;7.00;;;;;;;;5021121;28;9412;-75
2023/02/24 12:37:58;;;;;;;;;8.00;6.00;;;;;;;;5018268;28;9192;-75
2023/02/24 12:40:33;;;;;;;;;7.00;5.00;;;;;;;;5017477;28;9128;-76
2023/02/24 12:43:06;;;;;;;;;3.67;3.67;;;;;;;;5016209;28;9090;-75
2023/02/24 12:45:41;;;;;;;;;8.33;8.33;;;;;;;;4987789;28;9130;-76
2023/02/24 12:48:22;;;;;;;;;11.33;9.67;;;;;;;;5002891;28;9018;-74
2023/02/24 12:50:57;;;;;;;;;11.33;11.33;;;;;;;;5018294;28;9104;-76
2023/02/24 12:53:32;;;;;;;;;11.50;10.25;;;;;;;;5003238;28;9038;-77
2023/02/24 12:56:10;;;;;;;;;7.50;7.50;;;;;;;;5018371;28;8880;-76
2023/02/24 12:58:40;;;;;;;;;9.25;9.25;;;;;;;;5009768;28;9012;-76
2023/02/24 13:01:16;;;;;;;;;6.75;6.75;;;;;;;;5021673;28;8883;-75
2023/02/24 13:03:56;;;;;;;;;10.75;10.50;;;;;;;;4983199;28;8865;-75
2023/02/24 13:06:37;;;;;;;;;7.25;7.25;;;;;;;;4999428;28;8851;-76
2023/02/24 13:09:12;;;;;;;;;8.00;8.00;;;;;;;;5003215;28;8922;-75
2023/02/24 13:11:46;;;;;;;;;6.75;6.75;;;;;;;;4993136;28;8854;-74
2023/02/24 13:14:20;;;;;;;;;7.75;6.00;;;;;;;;4996289;28;8866;-75
2023/02/24 13:16:47;;;;;;;;;8.75;8.75;;;;;;;;4988760;28;8855;-74
2023/02/24 13:19:20;;;;;;;;;12.00;9.75;;;;;;;;4999981;28;8863;-76
2023/02/24 13:22:04;;;;;;;;;6.00;6.00;;;;;;;;4996611;28;8851;-75
2023/02/24 13:24:32;;;;;;;;;9.00;7.50;;;;;;;;4997317;28;8860;-75
2023/02/24 13:27:13;;;;;;;;;11.25;8.25;;;;;;;;4998667;28;9665;-76
2023/02/24 13:29:45;;;;;;;;;7.00;7.00;;;;;;;;5001217;28;9050;-73
2023/02/24 13:32:30;;;;;;;;;9.50;7.50;;;;;;;;4998458;28;8944;-75
2023/02/24 13:34:59;;;;;;;;;8.00;6.50;;;;;;;;4995761;28;9668;-74
2023/02/24 13:37:31;;;;;;;;;11.00;7.75;;;;;;;;4998042;28;8879;-75
2023/02/24 13:39:58;;;;;;;;;11.75;8.50;;;;;;;;4999255;28;8867;-75
2023/02/24 13:42:27;;;;;;;;;7.00;6.75;;;;;;;;5000901;28;8890;-73
2023/02/24 13:45:01;;;;;;;;;6.00;4.25;;;;;;;;4998341;28;8848;-74
2023/02/24 13:47:42;;;;;;;;;7.25;7.25;;;;;;;;4999149;28;8840;-74
2023/02/24 13:50:19;;;;;;;;;12.75;12.75;;;;;;;;4998578;28;8840;-74
2023/02/24 13:53:23;;;;;;;;;10.25;8.75;;;;;;;;4994959;28;8881;-74
2023/02/24 13:56:04;;;;;;;;;7.75;7.75;;;;;;;;4993975;28;8871;-75
2023/02/24 13:58:52;;;;;;;;;8.25;7.00;;;;;;;;5000303;28;8870;-74
2023/02/24 14:01:21;;;;;;;;;7.75;6.00;;;;;;;;4993775;28;8877;-74
2023/02/24 14:04:03;;;;;;;;;6.50;6.50;;;;;;;;5011697;28;8995;-75
2023/02/24 14:06:31;;;;;;;;;7.50;7.00;;;;;;;;5002906;28;9707;-74
2023/02/24 14:09:00;;;;;;;;;4.50;4.50;;;;;;;;5021055;28;8872;-74
2023/02/24 14:11:31;;;;;;;;;11.75;7.50;;;;;;;;5019321;28;8860;-75
2023/02/24 14:13:58;;;;;;;;;6.00;6.00;;;;;;;;5015804;28;8881;-74
2023/02/24 14:16:28;;;;;;;;;6.75;6.75;;;;;;;;4986099;28;8868;-74
2023/02/24 14:18:57;;;;;;;;;11.00;11.00;;;;;;;;5017729;28;8840;-75
2023/02/24 14:21:25;;;;;;;;;7.50;5.75;;;;;;;;5016494;28;8857;-74
2023/02/24 14:23:57;;;;;;;;;6.75;5.25;;;;;;;;5021166;28;8879;-74
2023/02/24 14:26:25;;;;;;;;;5.50;4.50;;;;;;;;5013664;28;8903;-74
2023/02/24 14:28:57;;;;;;;;;6.25;5.75;;;;;;;;5002082;28;8860;-74
2023/02/24 14:31:25;;;;;;;;;5.75;5.75;;;;;;;;5011209;28;8991;-73
2023/02/24 14:33:59;;;;;;;;;4.00;4.00;;;;;;;;5016309;28;8856;-76
2023/02/24 14:36:29;;;;;;;;;7.00;7.00;;;;;;;;5017195;28;8885;-75
2023/02/24 14:39:09;;;;;;;;;6.25;4.75;;;;;;;;5018809;28;8960;-75
2023/02/24 14:41:37;;;;;;;;;4.25;2.50;;;;;;;;5019778;28;8865;-75
2023/02/24 14:44:25;;;;;;;;;6.75;4.00;;;;;;;;5004796;28;8840;-75
2023/02/24 14:46:54;;;;;;;;;3.50;2.75;;;;;;;;5015486;28;9696;-75
2023/02/24 14:49:26;;;;;;;;;4.75;3.75;;;;;;;;5018174;28;8844;-75
2023/02/24 14:51:57;;;;;;;;;21.50;21.50;;;;;;;;5013612;28;8832;-75
2023/02/24 14:54:39;;;;;;;;;6.50;6.50;;;;;;;;5017348;28;8867;-75
2023/02/24 14:57:08;;;;;;;;;3.00;3.00;;;;;;;;5018557;28;8929;-75
2023/02/24 14:59:39;;;;;;;;;3.00;3.00;;;;;;;;5022403;28;8900;-74
2023/02/24 15:02:14;;;;;;;;;2.25;2.25;;;;;;;;5022038;28;8851;-74
2023/02/24 15:04:43;;;;;;;;;5.25;5.25;;;;;;;;5003546;28;8876;-74
2023/02/24 15:07:17;;;;;;;;;3.25;3.25;;;;;;;;5004584;28;8861;-75
2023/02/24 15:09:45;;;;;;;;;2.00;2.00;;;;;;;;5020660;28;8845;-75
2023/02/24 15:12:21;;;;;;;;;4.25;3.00;;;;;;;;5023193;28;8872;-75
2023/02/24 15:14:52;;;;;;;;;4.75;3.00;;;;;;;;5021537;28;8929;-73
2023/02/24 15:17:22;;;;;;;;;3.00;3.00;;;;;;;;5016516;28;8856;-74
2023/02/24 15:19:53;;;;;;;;;2.50;2.50;;;;;;;;5020334;28;9673;-74
2023/02/24 15:22:23;;;;;;;;;1.25;1.25;;;;;;;;5018475;28;9762;-75